createdAt,value
2023-01-23T00:01:35.190Z,1.29
2023-01-23T00:04:03.962Z,1.24
2023-01-23T00:06:31.547Z,1.23
2023-01-23T00:08:58.924Z,1.15
2023-01-23T00:11:30.218Z,1.20
2023-01-23T00:13:58.729Z,1.23
2023-01-23T00:16:29.137Z,1.29
2023-01-23T00:18:57.385Z,1.40
2023-01-23T00:21:27.927Z,1.25
2023-01-23T00:23:57.295Z,1.23
2023-01-23T00:26:27.296Z,1.13
2023-01-23T00:28:55.297Z,1.08
2023-01-23T00:31:26.661Z,1.56
2023-01-23T00:33:56.956Z,1.79
2023-01-23T00:36:25.423Z,1.69
2023-01-23T00:38:56.754Z,1.53
2023-01-23T00:41:24.647Z,1.39
2023-01-23T00:43:52.347Z,1.26
2023-01-23T00:46:21.278Z,1.15
2023-01-23T00:48:49.116Z,1.30
2023-01-23T00:51:17.424Z,1.40
2023-01-23T00:53:45.277Z,1.56
2023-01-23T00:56:12.856Z,1.40
2023-01-23T00:58:44.117Z,1.24
2023-01-23T01:01:14.937Z,1.22
2023-01-23T01:03:43.321Z,1.25
2023-01-23T01:06:11.334Z,1.37
2023-01-23T01:08:38.846Z,1.29
2023-01-23T01:11:07.237Z,1.34
2023-01-23T01:13:34.806Z,1.42
2023-01-23T01:16:02.464Z,1.50
2023-01-23T01:18:30.610Z,1.48
2023-01-23T01:20:58.473Z,1.48
2023-01-23T01:23:26.331Z,1.54
2023-01-23T01:25:58.278Z,1.78
2023-01-23T01:28:27.358Z,1.72
2023-01-23T01:30:54.866Z,1.71
2023-01-23T01:33:24.392Z,1.74
2023-01-23T01:35:52.868Z,1.72
2023-01-23T01:38:20.428Z,1.76
2023-01-23T01:40:47.728Z,1.84
2023-01-23T01:43:20.420Z,1.95
2023-01-23T01:46:00.327Z,1.87
2023-01-23T01:48:51.922Z,1.94
2023-01-23T01:51:40.867Z,1.81
2023-01-23T01:54:11.363Z,1.67
2023-01-23T01:56:44.986Z,1.73
2023-01-23T01:59:14.387Z,1.60
2023-01-23T02:01:46.270Z,1.54
2023-01-23T02:04:15.793Z,1.40
2023-01-23T02:06:43.886Z,1.26
2023-01-23T02:09:20.447Z,1.18
2023-01-23T02:11:50.296Z,1.18
2023-01-23T02:14:20.673Z,1.12
2023-01-23T02:16:52.184Z,1.14
2023-01-23T02:19:22.915Z,1.19
2023-01-23T02:21:58.024Z,1.18
2023-01-23T02:24:37.124Z,1.06
2023-01-23T02:27:05.111Z,1.06
2023-01-23T02:29:43.875Z,1.11
2023-01-23T02:32:12.099Z,0.94
2023-01-23T02:34:40.289Z,1.14
2023-01-23T02:37:09.211Z,1.19
2023-01-23T02:39:37.707Z,1.07
2023-01-23T02:42:06.011Z,1.11
2023-01-23T02:44:43.044Z,1.04
2023-01-23T02:47:13.104Z,1.03
2023-01-23T02:49:43.094Z,1.06
2023-01-23T02:52:11.504Z,1.09
2023-01-23T02:54:40.746Z,0.99
2023-01-23T02:57:08.915Z,0.99
2023-01-23T02:59:54.827Z,1.00
2023-01-23T03:02:22.924Z,1.03
2023-01-23T03:04:50.420Z,0.99
2023-01-23T03:07:17.770Z,1.13
2023-01-23T03:09:47.965Z,1.31
2023-01-23T03:12:16.181Z,1.40
2023-01-23T03:14:43.756Z,1.49
2023-01-23T03:17:14.869Z,1.32
2023-01-23T03:19:42.897Z,1.29
2023-01-23T03:22:10.597Z,1.43
2023-01-23T03:24:39.911Z,1.61
2023-01-23T03:27:08.645Z,1.65
2023-01-23T03:30:05.256Z,1.58
2023-01-23T03:32:34.187Z,1.42
2023-01-23T03:35:01.631Z,1.32
2023-01-23T03:37:30.296Z,1.35
2023-01-23T03:40:17.428Z,1.32
2023-01-23T03:42:44.980Z,1.47
2023-01-23T03:45:15.223Z,1.52
2023-01-23T03:47:43.170Z,1.52
2023-01-23T03:50:11.550Z,1.68
2023-01-23T03:52:40.247Z,1.80
2023-01-23T03:55:08.629Z,1.72
2023-01-23T03:57:37.056Z,1.73
2023-01-23T04:00:13.900Z,1.86
2023-01-23T04:02:41.692Z,1.65
2023-01-23T04:05:12.062Z,1.60
2023-01-23T04:07:39.852Z,1.71
2023-01-23T04:10:07.486Z,1.72
2023-01-23T04:12:35.556Z,1.67
2023-01-23T04:15:03.303Z,1.66
2023-01-23T04:17:30.902Z,1.75
2023-01-23T04:19:58.154Z,1.69
2023-01-23T04:22:26.449Z,1.64
2023-01-23T04:24:53.812Z,1.67
2023-01-23T04:27:21.120Z,1.84
2023-01-23T04:29:48.613Z,1.87
2023-01-23T04:32:16.075Z,1.82
2023-01-23T04:34:46.688Z,1.82
2023-01-23T04:37:15.079Z,1.58
2023-01-23T04:39:42.798Z,1.57
2023-01-23T04:42:10.716Z,1.49
2023-01-23T04:44:52.521Z,1.55
2023-01-23T04:47:38.474Z,1.59
2023-01-23T04:50:11.293Z,1.50
2023-01-23T04:52:40.514Z,1.57
2023-01-23T04:55:09.496Z,1.54
2023-01-23T04:57:37.236Z,1.49
2023-01-23T05:00:14.444Z,1.39
2023-01-23T05:02:42.051Z,1.38
2023-01-23T05:05:09.714Z,1.28
2023-01-23T05:07:38.684Z,1.20
2023-01-23T05:10:13.097Z,1.23
2023-01-23T05:12:40.636Z,1.44
2023-01-23T05:15:10.036Z,1.31
2023-01-23T05:17:40.751Z,1.30
2023-01-23T05:20:09.356Z,1.28
2023-01-23T05:22:38.990Z,1.36
2023-01-23T05:25:07.589Z,1.37
2023-01-23T05:27:35.266Z,1.28
2023-01-23T05:30:03.322Z,1.37
2023-01-23T05:32:34.573Z,1.43
2023-01-23T05:35:28.149Z,1.43
2023-01-23T05:37:55.827Z,1.37
2023-01-23T05:40:25.003Z,1.40
2023-01-23T05:43:24.612Z,1.31
2023-01-23T05:46:21.309Z,1.26
2023-01-23T05:48:52.559Z,1.23
2023-01-23T05:51:22.545Z,1.49
2023-01-23T05:53:50.972Z,1.53
2023-01-23T05:56:19.049Z,1.51
2023-01-23T05:59:06.730Z,1.37
2023-01-23T06:01:41.799Z,1.31
2023-01-23T06:04:09.419Z,1.32
2023-01-23T06:06:51.367Z,1.25
2023-01-23T06:09:19.187Z,1.27
2023-01-23T06:11:46.806Z,1.21
2023-01-23T06:14:14.369Z,1.23
2023-01-23T06:16:42.001Z,1.09
2023-01-23T06:19:10.308Z,1.05
2023-01-23T06:21:37.897Z,0.99
2023-01-23T06:24:06.129Z,1.11
2023-01-23T06:26:33.932Z,1.08
2023-01-23T06:29:02.309Z,0.98
2023-01-23T06:31:32.577Z,0.97
2023-01-23T06:34:02.447Z,1.02
2023-01-23T06:36:36.531Z,1.11
2023-01-23T06:39:04.690Z,1.11
2023-01-23T06:41:38.731Z,1.08
2023-01-23T06:44:08.280Z,1.14
2023-01-23T06:46:36.815Z,1.19
2023-01-23T06:49:06.398Z,1.05
2023-01-23T06:51:37.181Z,0.94
2023-01-23T06:54:07.088Z,1.00
2023-01-23T06:56:34.645Z,0.93
2023-01-23T06:59:06.215Z,0.97
2023-01-23T07:01:34.308Z,0.93
2023-01-23T07:04:04.507Z,0.69
2023-01-23T07:06:32.530Z,0.57
2023-01-23T07:09:00.289Z,0.59
2023-01-23T07:11:29.265Z,0.66
2023-01-23T07:13:57.595Z,0.69
2023-01-23T07:16:27.023Z,0.78
2023-01-23T07:19:01.649Z,0.89
2023-01-23T07:21:33.409Z,0.84
2023-01-23T07:24:01.109Z,0.86
2023-01-23T07:26:28.747Z,1.02
2023-01-23T07:28:56.360Z,1.09
2023-01-23T07:31:23.788Z,1.06
2023-01-23T07:33:51.714Z,1.01
2023-01-23T07:36:19.258Z,0.86
2023-01-23T07:38:46.676Z,1.00
2023-01-23T07:41:14.896Z,0.83
2023-01-23T07:43:42.395Z,0.96
2023-01-23T07:46:09.835Z,0.90
2023-01-23T07:48:38.149Z,1.02
2023-01-23T07:51:06.876Z,1.08
2023-01-23T07:53:34.460Z,0.98
2023-01-23T07:56:06.078Z,1.04
2023-01-23T07:58:33.838Z,1.15
2023-01-23T08:01:07.071Z,1.24
2023-01-23T08:03:34.742Z,1.54
2023-01-23T08:06:02.639Z,1.62
2023-01-23T08:08:36.483Z,1.68
2023-01-23T08:11:16.047Z,2.02
2023-01-23T08:13:43.701Z,2.28
2023-01-23T08:16:13.568Z,2.50
2023-01-23T08:18:41.255Z,2.76
2023-01-23T08:21:09.569Z,3.19
2023-01-23T08:23:37.130Z,3.61
2023-01-23T08:26:07.403Z,4.12
2023-01-23T08:28:36.237Z,4.83
2023-01-23T08:31:07.273Z,5.57
2023-01-23T08:33:36.653Z,6.02
2023-01-23T08:36:07.342Z,6.12
2023-01-23T08:38:35.789Z,6.39
2023-01-23T08:41:03.543Z,6.39
2023-01-23T08:43:31.769Z,6.08
2023-01-23T08:46:00.301Z,5.75
2023-01-23T08:48:28.609Z,5.37
2023-01-23T08:51:02.071Z,5.32
2023-01-23T08:53:30.387Z,5.29
2023-01-23T08:56:02.501Z,5.22
2023-01-23T08:58:30.674Z,5.32
2023-01-23T09:01:08.151Z,5.44
2023-01-23T09:03:57.256Z,5.60
2023-01-23T09:06:24.799Z,5.76
2023-01-23T09:08:52.238Z,5.78
2023-01-23T09:11:20.321Z,5.89
2023-01-23T09:13:47.944Z,6.00
2023-01-23T09:16:16.444Z,5.82
2023-01-23T09:18:43.943Z,5.92
2023-01-23T09:21:13.040Z,6.15
2023-01-23T09:23:43.543Z,6.43
2023-01-23T09:26:13.764Z,6.75
2023-01-23T09:28:44.038Z,6.65
2023-01-23T09:31:13.787Z,6.79
2023-01-23T09:33:41.898Z,7.02
2023-01-23T09:36:10.428Z,7.05
2023-01-23T09:38:45.015Z,7.15
2023-01-23T09:41:21.007Z,7.24
2023-01-23T09:43:51.486Z,7.46
2023-01-23T09:46:28.861Z,7.60
2023-01-23T09:48:59.578Z,7.63
2023-01-23T09:51:53.030Z,7.66
2023-01-23T09:54:39.068Z,7.60
2023-01-23T09:57:18.443Z,7.72
2023-01-23T10:00:00.209Z,7.94
2023-01-23T10:02:29.517Z,7.16
2023-01-23T10:04:58.778Z,6.70
2023-01-23T10:07:50.022Z,6.54
2023-01-23T10:10:53.572Z,5.90
2023-01-23T10:13:42.663Z,5.87
2023-01-23T10:16:49.393Z,5.76
2023-01-23T10:19:29.309Z,5.56
2023-01-23T10:25:02.787Z,4.95
2023-01-23T10:27:39.048Z,4.92
2023-01-23T10:30:29.007Z,4.85
2023-01-23T10:33:02.489Z,4.81
2023-01-23T10:35:41.136Z,4.66
2023-01-23T10:38:31.007Z,4.59
2023-01-23T10:41:24.589Z,4.70
2023-01-23T10:43:54.494Z,4.93
2023-01-23T10:46:33.422Z,4.96
2023-01-23T10:49:02.158Z,5.03
2023-01-23T10:51:36.443Z,5.10
2023-01-23T10:54:31.814Z,5.41
2023-01-23T10:57:09.092Z,5.70
2023-01-23T10:59:39.699Z,5.93
2023-01-23T11:02:13.050Z,6.11
2023-01-23T11:04:43.379Z,6.03
2023-01-23T11:07:18.437Z,6.04
2023-01-23T11:09:54.676Z,5.97
2023-01-23T11:12:23.992Z,6.25
2023-01-23T11:14:52.528Z,6.49
2023-01-23T11:17:24.076Z,6.07
2023-01-23T11:19:54.568Z,6.37
2023-01-23T11:22:36.989Z,6.64
2023-01-23T11:25:31.695Z,6.71
2023-01-23T11:28:02.623Z,6.84
2023-01-23T11:30:44.152Z,6.33
2023-01-23T11:33:19.600Z,6.48
2023-01-23T11:36:03.200Z,6.74
2023-01-23T11:38:53.083Z,7.11
2023-01-23T11:41:28.389Z,7.00
2023-01-23T11:43:56.412Z,7.01
2023-01-23T11:46:56.069Z,7.09
2023-01-23T11:49:49.722Z,7.03
2023-01-23T11:52:49.665Z,6.83
2023-01-23T11:55:51.332Z,7.13
2023-01-23T11:58:49.002Z,7.30
2023-01-23T12:01:25.516Z,7.01
2023-01-23T12:04:23.772Z,6.52
2023-01-23T12:06:57.281Z,6.32
2023-01-23T12:09:54.525Z,5.99
2023-01-23T12:12:58.820Z,6.27
2023-01-23T12:15:43.830Z,6.38
2023-01-23T12:18:34.505Z,6.34
2023-01-23T12:21:11.699Z,6.36
2023-01-23T12:24:12.569Z,6.37
2023-01-23T12:26:58.338Z,6.37
2023-01-23T12:29:52.573Z,6.57
2023-01-23T12:32:43.229Z,6.66
2023-01-23T12:35:55.806Z,6.73
2023-01-23T12:39:09.342Z,6.66
2023-01-23T12:41:42.764Z,6.72
2023-01-23T12:44:17.344Z,6.78
2023-01-23T12:46:57.516Z,6.58
2023-01-23T12:49:49.293Z,6.78
2023-01-23T12:52:35.822Z,6.66
2023-01-23T12:55:09.764Z,6.59
2023-01-23T12:57:59.874Z,6.34
2023-01-23T13:00:50.665Z,6.35
2023-01-23T13:03:53.334Z,6.36
2023-01-23T13:06:35.235Z,6.16
2023-01-23T13:09:18.436Z,5.98
2023-01-23T13:11:56.270Z,5.74
2023-01-23T13:14:43.396Z,5.57
2023-01-23T13:17:42.186Z,5.41
2023-01-23T13:20:50.394Z,5.50
2023-01-23T13:23:29.454Z,5.74
2023-01-23T13:26:14.280Z,5.80
2023-01-23T13:28:51.866Z,5.93
2023-01-23T13:31:42.347Z,5.71
2023-01-23T13:34:18.973Z,5.64
2023-01-23T13:36:54.351Z,5.74
2023-01-23T13:39:31.785Z,5.82
2023-01-23T13:42:15.211Z,5.88
2023-01-23T13:45:19.616Z,5.98
2023-01-23T14:22:57.141Z,6.19
2023-01-23T14:25:26.405Z,6.03
2023-01-23T14:28:05.480Z,5.92
2023-01-23T14:30:33.218Z,5.80
2023-01-23T14:33:00.723Z,5.82
2023-01-23T14:35:31.441Z,5.62
2023-01-23T14:38:06.875Z,5.37
2023-01-23T14:40:47.052Z,5.39
2023-01-23T14:43:23.693Z,5.36
2023-01-23T14:45:59.757Z,5.28
2023-01-23T14:48:28.207Z,5.30
2023-01-23T14:51:21.540Z,5.39
2023-01-23T14:54:01.405Z,5.04
2023-01-23T14:56:33.355Z,5.12
2023-01-23T14:59:06.551Z,4.91
2023-01-23T15:01:35.914Z,4.76
2023-01-23T15:04:06.602Z,4.66
2023-01-23T15:06:36.575Z,4.50
2023-01-23T15:09:17.627Z,4.53
2023-01-23T15:11:45.738Z,4.44
2023-01-23T15:14:40.003Z,4.43
2023-01-23T15:17:14.824Z,4.32
2023-01-23T15:19:42.653Z,4.39
2023-01-23T15:22:25.124Z,4.38
2023-01-23T15:24:52.898Z,4.52
2023-01-23T15:27:27.025Z,4.59
2023-01-23T15:30:32.705Z,4.56
2023-01-23T15:33:07.478Z,4.54
2023-01-23T15:35:36.735Z,4.54
2023-01-23T15:38:06.216Z,4.50
2023-01-23T15:40:36.912Z,4.53
2023-01-23T15:43:08.454Z,4.48
2023-01-23T15:45:35.980Z,4.46
2023-01-23T15:48:03.424Z,4.67
2023-01-23T15:50:31.049Z,4.58
2023-01-23T15:52:58.735Z,4.63
2023-01-23T15:55:28.715Z,4.63
2023-01-23T15:57:56.650Z,4.66
2023-01-23T16:00:30.728Z,4.51
2023-01-23T16:02:59.650Z,4.61
2023-01-23T16:05:30.232Z,4.64
2023-01-23T16:08:01.300Z,4.66
2023-01-23T16:10:31.588Z,4.71
2023-01-23T16:13:09.950Z,4.74
2023-01-23T16:15:40.029Z,4.54
2023-01-23T16:18:07.885Z,4.54
2023-01-23T16:20:43.728Z,4.46
2023-01-23T16:23:20.092Z,4.50
2023-01-23T16:25:48.980Z,4.37
2023-01-23T16:28:26.014Z,4.21
2023-01-23T16:30:53.781Z,4.41
2023-01-23T16:33:21.682Z,4.41
2023-01-23T16:35:51.012Z,4.35
2023-01-23T16:38:24.800Z,4.27
2023-01-23T16:40:53.976Z,4.19
2023-01-23T16:43:30.000Z,4.10
2023-01-23T16:45:58.364Z,4.06
2023-01-23T16:48:28.519Z,3.90
2023-01-23T16:51:08.329Z,3.86
2023-01-23T16:53:40.934Z,3.98
2023-01-23T16:56:20.544Z,4.17
2023-01-23T16:58:49.469Z,4.09
2023-01-23T17:01:23.690Z,4.02
2023-01-23T17:03:58.787Z,3.99
2023-01-23T17:06:26.597Z,3.94
2023-01-23T17:08:54.063Z,3.91
2023-01-23T17:11:24.402Z,3.89
2023-01-23T17:14:03.595Z,3.97
2023-01-23T17:16:34.352Z,3.93
2023-01-23T17:19:09.584Z,3.93
2023-01-23T17:21:37.136Z,3.80
2023-01-23T17:24:04.718Z,3.75
2023-01-23T17:26:32.280Z,3.83
2023-01-23T17:28:59.857Z,3.86
2023-01-23T17:31:28.916Z,3.74
2023-01-23T17:33:56.552Z,3.71
2023-01-23T17:36:26.490Z,3.68
2023-01-23T17:38:57.463Z,3.64
2023-01-23T17:41:25.483Z,3.59
2023-01-23T17:43:52.978Z,3.57
2023-01-23T17:46:27.032Z,3.71
2023-01-23T17:48:56.545Z,3.67
2023-01-23T17:51:25.265Z,3.65
2023-01-23T17:53:53.390Z,3.56
2023-01-23T17:56:21.001Z,3.58
2023-01-23T17:58:48.652Z,3.63
2023-01-23T18:01:26.341Z,3.62
2023-01-23T18:03:54.223Z,3.59
2023-01-23T18:06:21.786Z,3.55
2023-01-23T18:08:49.532Z,3.49
2023-01-23T18:11:23.482Z,3.40
2023-01-23T18:14:29.954Z,3.36
2023-01-23T18:16:57.936Z,3.37
2023-01-23T18:19:27.644Z,3.39
2023-01-23T18:21:56.948Z,3.47
2023-01-23T18:24:30.496Z,3.41
2023-01-23T18:27:20.197Z,3.63
2023-01-23T18:30:15.563Z,3.51
2023-01-23T18:33:21.363Z,3.53
2023-01-23T18:36:16.760Z,3.46
2023-01-23T18:39:15.019Z,3.45
2023-01-23T18:42:16.280Z,3.58
2023-01-23T18:44:58.769Z,3.67
2023-01-23T18:47:26.564Z,3.85
2023-01-23T18:49:54.234Z,3.79
2023-01-23T18:52:37.693Z,3.90
2023-01-23T18:55:18.420Z,4.05
2023-01-23T18:58:02.293Z,3.97
2023-01-23T19:00:37.536Z,4.10
2023-01-23T19:03:13.838Z,4.06
2023-01-23T19:05:42.562Z,3.87
2023-01-23T19:08:28.096Z,4.05
2023-01-23T19:11:35.988Z,4.00
2023-01-23T19:14:29.986Z,3.99
2023-01-23T19:17:38.965Z,3.97
2023-01-23T19:20:16.742Z,3.97
2023-01-23T19:23:01.746Z,4.18
2023-01-23T19:25:29.984Z,4.23
2023-01-23T19:27:59.727Z,4.28
2023-01-23T19:30:27.696Z,4.36
2023-01-23T19:32:55.226Z,4.26
2023-01-23T19:35:22.854Z,4.29
2023-01-23T19:37:50.418Z,4.20
2023-01-23T19:40:18.462Z,4.04
2023-01-23T19:42:58.469Z,4.15
2023-01-23T19:45:34.008Z,4.17
2023-01-23T19:48:01.313Z,4.09
2023-01-23T19:50:28.854Z,4.07
2023-01-23T19:52:58.749Z,4.15
2023-01-23T19:55:29.536Z,4.15
2023-01-23T19:58:00.665Z,4.11
2023-01-23T20:00:36.092Z,4.14
2023-01-23T20:03:05.161Z,4.10
2023-01-23T20:05:32.687Z,4.03
2023-01-23T20:08:01.203Z,4.09
2023-01-23T20:10:30.521Z,3.94
2023-01-23T20:13:00.883Z,3.83
2023-01-23T20:15:30.128Z,3.86
2023-01-23T20:18:03.387Z,3.71
2023-01-23T20:20:30.979Z,3.74
2023-01-23T20:22:58.358Z,3.74
2023-01-23T20:25:25.763Z,3.71
2023-01-23T20:27:55.719Z,3.67
2023-01-23T20:30:24.194Z,3.62
2023-01-23T20:32:51.995Z,3.61
2023-01-23T20:35:19.385Z,3.60
2023-01-23T20:37:46.648Z,3.58
2023-01-23T20:40:14.345Z,3.50
2023-01-23T20:42:42.056Z,3.36
2023-01-23T20:45:09.989Z,3.38
2023-01-23T20:47:37.850Z,3.32
2023-01-23T20:50:05.811Z,3.24
2023-01-23T20:52:51.578Z,3.24
2023-01-23T20:55:19.347Z,3.33
2023-01-23T20:58:05.215Z,3.44
2023-01-23T21:00:33.118Z,3.46
2023-01-23T21:03:01.280Z,3.43
2023-01-23T21:05:29.251Z,3.43
2023-01-23T21:07:56.917Z,3.35
2023-01-23T21:10:24.639Z,3.35
2023-01-23T21:12:52.116Z,3.30
2023-01-23T21:15:19.643Z,3.23
2023-01-23T21:17:47.154Z,3.22
2023-01-23T21:20:14.698Z,3.24
2023-01-23T21:22:42.053Z,3.26
2023-01-23T21:25:09.570Z,3.32
2023-01-23T21:27:36.836Z,3.32
2023-01-23T21:30:04.300Z,3.32
2023-01-23T21:32:33.150Z,3.33
2023-01-23T21:35:00.819Z,3.36
2023-01-23T21:37:28.542Z,3.25
2023-01-23T21:39:56.306Z,3.28
2023-01-23T21:42:23.753Z,3.31
2023-01-23T21:44:52.812Z,3.30
2023-01-23T21:47:20.523Z,3.35
2023-01-23T21:49:49.666Z,3.19
2023-01-23T21:52:17.215Z,3.21
2023-01-23T21:54:44.727Z,3.27
2023-01-23T21:57:12.061Z,3.24
2023-01-23T21:59:40.245Z,3.25
2023-01-23T22:02:07.567Z,3.15
2023-01-23T22:04:35.156Z,3.14
2023-01-23T22:07:02.615Z,3.16
2023-01-23T22:09:30.174Z,3.18
2023-01-23T22:11:57.519Z,3.21
2023-01-23T22:14:24.996Z,3.27
2023-01-23T22:16:52.536Z,3.13
2023-01-23T22:19:25.596Z,2.96
2023-01-23T22:21:57.345Z,3.00
2023-01-23T22:24:25.043Z,3.02
2023-01-23T22:26:52.544Z,3.12
2023-01-23T22:29:20.213Z,3.18
2023-01-23T22:31:47.603Z,3.18
2023-01-23T22:34:15.032Z,3.20
2023-01-23T22:36:42.413Z,3.25
2023-01-23T22:39:13.965Z,3.33
2023-01-23T22:41:41.545Z,3.29
2023-01-23T22:44:08.821Z,3.24
2023-01-23T22:46:36.170Z,3.13
2023-01-23T22:49:03.569Z,3.22
2023-01-23T22:51:31.025Z,3.24
2023-01-23T22:53:58.887Z,3.25
2023-01-23T22:56:28.034Z,3.21
2023-01-23T22:58:57.016Z,3.27
2023-01-23T23:01:27.299Z,3.20
2023-01-23T23:03:57.971Z,3.26
2023-01-23T23:06:26.368Z,3.34
2023-01-23T23:08:53.885Z,3.24
2023-01-23T23:11:26.296Z,3.41
2023-01-23T23:13:55.812Z,3.34
2023-01-23T23:16:26.232Z,3.22
2023-01-23T23:18:55.331Z,3.21
2023-01-23T23:21:25.364Z,3.28
2023-01-23T23:23:58.056Z,3.39
2023-01-23T23:26:27.827Z,3.40
2023-01-23T23:28:55.703Z,3.41
2023-01-23T23:31:23.784Z,3.43
2023-01-23T23:33:51.299Z,3.40
2023-01-23T23:36:18.764Z,3.47
2023-01-23T23:38:46.148Z,3.45
2023-01-23T23:41:15.736Z,3.23
2023-01-23T23:43:43.805Z,3.36
2023-01-23T23:46:12.772Z,3.32
2023-01-23T23:48:40.444Z,3.38
2023-01-23T23:51:09.786Z,3.46
2023-01-23T23:53:37.387Z,3.50
2023-01-23T23:56:06.535Z,3.54
2023-01-23T23:58:37.261Z,3.52
